Flight Track Log - Related Links

Times and Time Zones

All times are in EDT time to prevent confusion due to time zone crossing. See the FLG4222 flight status page for this flight to view local times or setup timezone preferences in your user account.

Time Position Orientation Groundspeed Altitude Reporting Facility
EDT Latitude Longitude Course Direction KTS MPH feet Rate Location/Type
Fri 11:46:36 AM 42.2867 -76.1917 286° West 236 272 7,300  Level New York Center
Fri 11:48:38 AM 42.3508 -76.4111 292° West 315 362 11,300 1,859 Climbing Cleveland Center
Fri 11:49:40 AM 42.3833 -76.5358 289° West 346 398 13,000 1,597 Climbing Cleveland Center
Fri 11:50:00 AM 42.2312 -76.7592 289° West  Level Estimated
Fri 11:50:42 AM 42.4194 -76.6617 291° West 360 414 14,600  Level Cleveland Center
Fri 11:51:44 AM 42.4600 -76.8158 290° West 363 418 16,300 1,500 Climbing Cleveland Center
Fri 11:52:46 AM 42.4944 -76.9486 289° West 372 428 17,700 1,210 Climbing Cleveland Center
Fri 11:53:48 AM 42.5306 -77.0850 290° West 383 441 18,800 1,016 Climbing Cleveland Center
Fri 11:54:50 AM 42.5664 -77.2203 290° West 384 442 19,800 968 Climbing Cleveland Center
Fri 11:55:52 AM 42.6025 -77.3597 289° West 391 450 20,800 968 Climbing Cleveland Center
Fri 11:56:54 AM 42.6439 -77.5181 290° West 396 456 21,800 871 Climbing Cleveland Center
Fri 11:57:56 AM 42.6806 -77.6606 289° West 399 459 22,600 726 Climbing Cleveland Center
Fri 11:58:58 AM 42.7053 -77.8067 283° West 418 481 23,300 581 Climbing Cleveland Center
Fri 12:00:00 PM 42.7078 -77.9672 271° West 427 491 23,800 532 Climbing Cleveland Center
Fri 12:01:02 PM 42.7097 -78.1589 271° West 428 493 24,400 532 Climbing Cleveland Center
Fri 12:02:04 PM 42.7117 -78.3214 271° West 432 497 24,900 484 Climbing Cleveland Center
Fri 12:03:06 PM 42.7139 -78.4853 271° West 434 499 25,400 484 Climbing Cleveland Center
Fri 12:04:08 PM 42.7142 -78.6486 270° West 435 501 25,900 480 Climbing Cleveland Center
Fri 12:05:11 PM 42.7150 -78.8122 270° West 434 499 26,400 480 Climbing Cleveland Center
Fri 12:06:13 PM 42.7156 -78.9767 270° West 435 501 26,900 532 Climbing Cleveland Center
Fri 12:07:15 PM 42.7158 -79.1719 270° West 432 497 27,500 532 Climbing Cleveland Center
Fri 12:08:17 PM 42.7169 -79.3361 271° West 434 499 28,000 242 Climbing Cleveland Center
Fri 12:09:19 PM 42.7164 -79.5006 270° West 437 503 28,000  Level Cleveland Center
Fri 12:10:21 PM 42.7167 -79.6669 270° West 441 507 28,000  Level Cleveland Center
Fri 12:11:23 PM 42.7153 -79.8344 269° West 446 513 28,000  Level Cleveland Center
Fri 12:12:25 PM 42.7131 -80.0161 269° West 444 511 28,000  Level Cleveland Center
Fri 12:13:27 PM 42.7114 -80.1839 269° West 441 507 28,000  Level Cleveland Center
Fri 12:14:29 PM 42.7106 -80.3528 270° West 444 511 28,000  Level Cleveland Center
Fri 12:15:31 PM 42.7092 -80.5489 270° West 441 507 28,000 -242 Level Cleveland Center
Fri 12:16:33 PM 42.7067 -80.7183 269° West 444 511 27,500 -726 Descending Cleveland Center
Fri 12:17:35 PM 42.7033 -80.8969 269° West 465 535 26,500 -1,056 Descending Cleveland Center
Fri 12:18:38 PM 42.6839 -81.0767 262° West 479 551 25,300 -1,392 Descending Cleveland Center
Fri 12:19:40 PM 42.6647 -81.2539 262° West 474 545 23,600 -1,597 Descending Cleveland Center
Fri 12:20:42 PM 42.6453 -81.4133 261° West 429 494 22,000 -1,452 Descending Cleveland Center
Fri 12:21:44 PM 42.6300 -81.5564 262° West 386 444 20,600 -1,452 Descending Cleveland Center
Fri 12:22:46 PM 42.6100 -81.7200 261° West 375 432 19,000 -1,355 Descending Cleveland Center
Fri 12:23:48 PM 42.5933 -81.8544 260° West 376 433 17,800 -1,065 Descending Cleveland Center
Fri 12:24:50 PM 42.5758 -81.9972 261° West 383 441 16,800 -1,113 Descending Cleveland Center
Fri 12:25:52 PM 42.5589 -82.1381 261° West 381 438 15,500 -1,366 Descending Cleveland Center
Fri 12:26:53 PM 42.5400 -82.2958 261° West 359 413 14,000 -1,258 Descending Cleveland Center
Fri 12:26:54 PM 42.5414 -82.2733 85° East 370 426 14,200 -1,333 Climbing Cleveland Center
Fri 12:27:56 PM 42.5217 -82.4300 260° West 357 411 12,600 -1,082 Descending Cleveland Center
Fri 12:28:56 PM 42.5025 -82.5628 259° West 350 403 12,000 -581 Descending Cleveland Center
Fri 12:28:58 PM 42.5039 -82.5578 69° East 349 402 12,000 -982 Level Cleveland Center
Fri 12:29:51 PM 42.4658 -82.6683 245° Southwest 328 377 11,100 -968 Descending Cleveland Center
Fri 12:30:00 PM 42.4614 -82.6731 218° Southwest 345 397 11,000 -985 Descending Cleveland Center
Fri 12:30:58 PM 42.4239 -82.7844 246° West 312 359 10,000 -968 Descending Cleveland Center
Fri 12:31:02 PM 42.4239 -82.7781 90° East 321 369 10,000 -1,418 Level Cleveland Center
Fri 12:31:53 PM 42.4064 -82.8811 257° West 290 334 8,700 -1,452 Descending Cleveland Center
Fri 12:32:04 PM 42.4028 -82.8928 247° West 292 336 8,500 -1,574 Descending Cleveland Center
Fri 12:32:54 PM 42.3964 -82.9869 265° West 278 320 7,100 -1,333 Descending Cleveland Center
Fri 12:33:07 PM 42.3947 -82.9881 206° Southwest 283 326 7,100 -486 Level Cleveland Center
Fri 12:34:08 PM 42.4006 -83.0978 274° West 236 272 6,500 -581 Descending Cleveland Center
Fri 12:34:09 PM 42.3994 -83.0969 151° Southeast 256 295 6,500 -1,418 Level Cleveland Center
Fri 12:35:03 PM 42.3947 -83.1761 265° West 244 281 5,200 -1,355 Descending Cleveland Center
Fri 12:35:11 PM 42.3925 -83.1789 223° Southwest 244 281 5,100 -1,371 Descending Cleveland Center
Fri 12:36:13 PM 42.3450 -83.2419 224° Southwest 249 287 3,600 -1,500 Descending Cleveland Center
Fri 12:36:59 PM 42.2947 -83.2781 208° Southwest 197 227 2,400 -1,258 Descending Cleveland Center
Fri 12:37:15 PM 42.2892 -83.2811 202° Southwest 234 269 2,300 -896 Descending Cleveland Center
Fri 12:38:06 PM 42.2522 -83.3117 211° Southwest 146 168 1,400 -871 Descending Cleveland Center
Fri 12:38:17 PM 42.2508 -83.3083 119° Southeast 182 209 1,400 -411 Level Cleveland Center
Fri 12:39:19 PM 42.2081 -83.3397 209° Southwest 167 192 900 -484 Descending Cleveland Center
Fri 12:41:00 PM 42.2000 -83.3500 236° Southwest  Level FlightAware Approximate
Fri 12:48:00 PM 42.2124 -83.3534 236° Southwest  Level Estimated

Login

Don't have an account? Register now (free) for customized features, flight alerts, and more!